Grass Valley, CA

9:04 AM PST on December 03, 2016 (GMT -0800)
Grass Valley

Weather History for KGOO - August, 2013

Change the Weather History Date:

Saturday, August 10, 2013

  Actual Average (KBLU) Record (KBLU)
Temperature  
Mean Temperature 70 °F -  
Max Temperature 77 °F 81 °F 94 °F (1971)
Min Temperature 62 °F 63 °F 49 °F (1949)
Cooling Degree Days 4    
Growing Degree Days 20 (Base 50)    
Moisture  
Dew Point 42 °F    
Average Humidity 38    
Maximum Humidity 55    
Minimum Humidity 24    
Precipitation  
Precipitation 0.00 in - - ()
Sea Level Pressure  
Sea Level Pressure 30.07 in    
Wind  
Wind Speed 4 mph (SE)    
Max Wind Speed 9 mph    
Max Gust Speed -    
Visibility 10 miles    
Events      
Averages and records for this station are not official NWS values.
T = Trace of Precipitation, MM = Missing Value Source: NWS Daily Summary

Daily Weather History Graph

Daily Weather History Graph

Search for Another Location

Airport or City:

Trip Planner

Search our weather history database for the weather conditions in past years. The results will help you decide how hot, cold, wet, or windy it might be!

Date:

Astronomy

Aug. 10, 2013 Rise Set
Actual Time 6:12 AM PDT 8:05 PM PDT
Civil Twilight 5:43 AM PDT 8:34 PM PDT
Nautical Twilight 5:08 AM PDT 9:09 PM PDT
Astronomical Twilight 4:30 AM PDT 9:47 PM PDT
Moon 10:02 AM PDT (8/10) 9:51 PM PDT (8/10)
Length of Visible Light 14h 50m
Length of Day
13h 52m
Waxing Crescent, 15% of the Moon is Illuminated
Aug 10
Waxing Crescent
Aug 14
First Quarter
Aug 20
Full
Aug 28
Last Quarter
Sep 5
New

Hourly Weather History & Observations

Time (PDT) Temp. Dew Point Humidity Pressure Visibility Wind Dir Wind Speed Gust Speed Precip Events Conditions
12:00 AM 62.6 °F 46.4 °F 55% 30.04 in 10.0 mi ESE 4.6 mph - N/A   Clear
12:20 AM 62.6 °F 46.4 °F 55% 30.05 in 10.0 mi Calm Calm - N/A   Clear
12:40 AM 62.6 °F 46.4 °F 55% 30.05 in 10.0 mi East 3.5 mph - N/A   Clear
1:00 AM 62.6 °F 46.4 °F 55% 30.05 in 10.0 mi ESE 5.8 mph - N/A   Clear
1:20 AM 62.6 °F 44.6 °F 52% 30.05 in 10.0 mi ESE 6.9 mph - N/A   Clear
1:40 AM 64.4 °F 44.6 °F 49% 30.04 in 10.0 mi ESE 6.9 mph - N/A   Clear
2:00 AM 64.4 °F 44.6 °F 49% 30.05 in 10.0 mi ESE 4.6 mph - N/A   Clear
2:20 AM 64.4 °F 42.8 °F 45% 30.05 in 10.0 mi ESE 3.5 mph - N/A   Clear
2:40 AM 62.6 °F 44.6 °F 52% 30.05 in 10.0 mi Calm Calm - N/A   Clear
3:00 AM 64.4 °F 41.0 °F 42% 30.05 in 10.0 mi ESE 3.5 mph - N/A   Clear
3:20 AM 64.4 °F 41.0 °F 42% 30.04 in 10.0 mi East 5.8 mph - N/A   Clear
3:40 AM 64.4 °F 41.0 °F 42% 30.04 in 10.0 mi East 6.9 mph - N/A   Clear
4:00 AM 64.4 °F 41.0 °F 42% 30.04 in 10.0 mi ESE 6.9 mph - N/A   Clear
4:20 AM 64.4 °F 41.0 °F 42% 30.04 in 10.0 mi ESE 6.9 mph - N/A   Clear
4:40 AM 62.6 °F 41.0 °F 45% 30.04 in 10.0 mi East 6.9 mph - N/A   Clear
5:00 AM 62.6 °F 41.0 °F 45% 30.04 in 10.0 mi East 5.8 mph - N/A   Clear
5:20 AM 62.6 °F 41.0 °F 45% 30.04 in 10.0 mi East 5.8 mph - N/A   Clear
5:40 AM 62.6 °F 41.0 °F 45% 30.04 in 10.0 mi East 5.8 mph - N/A   Clear
6:00 AM 62.6 °F 41.0 °F 45% 30.04 in 10.0 mi ESE 6.9 mph - N/A   Clear
6:20 AM 62.6 °F 39.2 °F 42% 30.05 in 10.0 mi East 5.8 mph - N/A   Clear
6:40 AM 62.6 °F 39.2 °F 42% 30.05 in 10.0 mi East 5.8 mph - N/A   Clear
7:00 AM 64.4 °F 39.2 °F 40% 30.06 in 10.0 mi East 5.8 mph - N/A   Clear
7:15 AM 64.4 °F 39.2 °F 40% 30.06 in 10.0 mi East 5.8 mph - N/A   Clear
7:40 AM 64.4 °F 39.2 °F 40% 30.06 in 10.0 mi ESE 5.8 mph - N/A   Clear
8:00 AM 66.2 °F 41.0 °F 40% 30.07 in 10.0 mi ESE 5.8 mph - N/A   Clear
8:20 AM 66.2 °F 41.0 °F 40% 30.07 in 10.0 mi Calm Calm - N/A   Clear
8:40 AM 66.2 °F 42.8 °F 43% 30.08 in 10.0 mi Calm Calm - N/A   Clear
9:00 AM 68.0 °F 41.0 °F 37% 30.08 in 10.0 mi SE 3.5 mph - N/A   Clear
9:20 AM 68.0 °F 41.0 °F 37% 30.08 in 10.0 mi SE 6.9 mph - N/A   Clear
9:40 AM 68.0 °F 39.2 °F 35% 30.08 in 10.0 mi SSE 3.5 mph - N/A   Clear
10:00 AM 69.8 °F 41.0 °F 35% 30.08 in 9.0 mi SSE 4.6 mph - N/A   Clear
10:20 AM 71.6 °F 41.0 °F 33% 30.09 in 10.0 mi Calm Calm - N/A   Clear
10:40 AM 71.6 °F 41.0 °F 33% 30.09 in 10.0 mi Calm Calm - N/A   Clear
11:00 AM 71.6 °F 39.2 °F 31% 30.09 in 10.0 mi SSW 3.5 mph - N/A   Clear
11:20 AM 73.4 °F 39.2 °F 29% 30.09 in 10.0 mi Calm Calm - N/A   Clear
11:35 AM 73.4 °F 39.2 °F 29% 30.09 in 10.0 mi SSW 5.8 mph - N/A   Clear
12:20 PM 75.2 °F 37.4 °F 25% 30.09 in 10.0 mi Calm Calm - N/A   Clear
12:40 PM 77.0 °F 37.4 °F 24% 30.09 in 9.0 mi Calm Calm - N/A   Clear
1:00 PM 75.2 °F 39.2 °F 27% 30.09 in 10.0 mi Calm Calm - N/A   Clear
1:20 PM 77.0 °F 41.0 °F 28% 30.09 in 10.0 mi SW 3.5 mph - N/A   Clear
1:40 PM 77.0 °F 42.8 °F 29% 30.09 in 10.0 mi West 9.2 mph - N/A   Clear
2:00 PM 77.0 °F 37.4 °F 24% 30.09 in 10.0 mi SSW 4.6 mph - N/A   Clear
2:20 PM 77.0 °F 37.4 °F 24% 30.09 in 9.0 mi SSW 5.8 mph - N/A   Clear
2:40 PM 77.0 °F 41.0 °F 28% 30.09 in 9.0 mi SW 9.2 mph - N/A   Clear
3:00 PM 77.0 °F 39.2 °F 26% 30.09 in 9.0 mi SW 5.8 mph - N/A   Clear
3:20 PM 77.0 °F 39.2 °F 26% 30.08 in 10.0 mi WSW 8.1 mph - N/A   Clear
3:40 PM 77.0 °F 39.2 °F 26% 30.08 in 10.0 mi Calm Calm - N/A   Clear
4:00 PM 77.0 °F 37.4 °F 24% 30.08 in 10.0 mi WSW 5.8 mph - N/A   Clear
4:20 PM 77.0 °F 37.4 °F 24% 30.08 in 10.0 mi Calm Calm - N/A   Clear
4:40 PM 77.0 °F 37.4 °F 24% 30.07 in 9.0 mi WSW 3.5 mph - N/A   Clear
5:00 PM 77.0 °F 41.0 °F 28% 30.07 in 10.0 mi WNW 5.8 mph - N/A   Clear
5:20 PM 77.0 °F 39.2 °F 26% 30.07 in 10.0 mi WSW 4.6 mph - N/A   Clear
5:40 PM 77.0 °F 41.0 °F 28% 30.07 in 10.0 mi SW 4.6 mph - N/A   Clear
6:00 PM 75.2 °F 41.0 °F 29% 30.07 in 10.0 mi SSW 3.5 mph - N/A   Clear
6:20 PM 75.2 °F 41.0 °F 29% 30.07 in 10.0 mi Calm Calm - N/A   Clear
6:40 PM 75.2 °F 41.0 °F 29% 30.07 in 10.0 mi Calm Calm - N/A   Clear
7:00 PM 75.2 °F 41.0 °F 29% 30.07 in 10.0 mi Calm Calm - N/A   Clear
7:20 PM 73.4 °F 41.0 °F 31% 30.07 in 10.0 mi WSW 4.6 mph - N/A   Clear
7:40 PM 73.4 °F 42.8 °F 33% 30.07 in 10.0 mi Calm Calm - N/A   Clear
8:00 PM 71.6 °F 44.6 °F 38% 30.07 in 10.0 mi Calm Calm - N/A   Clear
8:20 PM 69.8 °F 44.6 °F 40% 30.07 in 10.0 mi Calm Calm - N/A   Clear
8:40 PM 68.0 °F 44.6 °F 43% 30.07 in 10.0 mi Calm Calm - N/A   Clear
9:00 PM 68.0 °F 46.4 °F 46% 30.08 in 10.0 mi Calm Calm - N/A   Clear
9:20 PM 68.0 °F 46.4 °F 46% 30.09 in 10.0 mi Calm Calm - N/A   Clear
9:40 PM 68.0 °F 46.4 °F 46% 30.09 in 10.0 mi Calm Calm - N/A   Clear
10:00 PM 66.2 °F 46.4 °F 49% 30.10 in 10.0 mi Calm Calm - N/A   Clear
10:20 PM 66.2 °F 46.4 °F 49% 30.09 in 10.0 mi Calm Calm - N/A   Clear
10:40 PM 66.2 °F 46.4 °F 49% 30.10 in 10.0 mi Calm Calm - N/A   Clear
11:00 PM 66.2 °F 46.4 °F 49% 30.09 in 10.0 mi Calm Calm - N/A   Clear
11:20 PM 66.2 °F 46.4 °F 49% 30.09 in 10.0 mi Calm Calm - N/A   Clear
11:40 PM 66.2 °F 46.4 °F 49% 30.09 in 10.0 mi Calm Calm - N/A   Clear